BFIBOEING FIELD/KING COUNTY INTL
METARs for nearby airports:
N 0 21' KBFI 182153Z 33007KT 10SM CLR 22/01 A3011
SE 4 32' KRNT 182153Z 10008G19KT 10SM CLR 24/M03 A3011
S 4 432' KSEA 182153Z 08007G17KT 050V110 10SM CLR 24/M03 A3012
W 18 444' KPWT 182156Z 35006G15KT 10SM CLR 22/M01 A3013
SW 19 294' KTIW 182153Z 35009KT 10SM CLR 21/01 A3011
N 22 607' KPAE 182153Z 33006KT 10SM CLR 18/00 A3015
S 24 322' KTCM 182158Z 34008KT 10SM CLR 22/07 A3010
S 25 537' KPLU 182215Z VRB03KT 10SM CLR 23/M00 A3010
S 29 300' KGRF 182158Z 31007KT 10SM CLR 21/07 A3010
N 38 141' KAWO 182156Z 31007KT 10SM CLR 22/06 A3014
SW 38 272' KSHN 182153Z 06009G18KT 10SM CLR 23/M03 A3008
SW 41 207' KOLM 182154Z 06005KT 10SM CLR 22/01 A3010
N 51 47' KNUW 182156Z 30006KT 10SM FEW035 FEW250 14/06 A3020
N 56 145' KBVS 182215Z 32006KT 10SM CLR 19/06 A3015
NW 57 13' KNOW 182210Z 14003KT 10SM CLR 12/06 A3016
SW 58 177' KCLS 182215Z 01004KT 10SM CLR 22/03 A3008
NW 59 291' KCLM 182153Z 10008KT 10SM CLR 14/03 A3017
NW 66 112' KFHR 182153Z 36008KT 10SM CLR 17/03 A3017
SW 74 17' KHQM 182153Z 07012G22KT 10SM CLR 23/01 A3005
N 74 34' KORS 182215Z VRB06KT 9SM CLR 11/07 A3017
N 76 171' KBLI 182153Z 21006KT 10SM CLR 18/05 A3016
E 78 1763' KELN 182153Z 31006KT 10SM CLR 11/00 A3029
NW 80 64' CYYJ 182200Z 07003KT 300V090 30SM FEW240 18/01 A3017
E 85 1248' KEAT 182155Z 00000KT 10SM CLR 11/M01 A3030
S 88 20' KKLS 182156Z 15013G20KT 080V170 10SM CLR 24/M02 A3007
SE 92 1098' KYKM 182153Z 19004KT 10SM CLR 14/02 A3028
W 94 193' KUIL 182153Z 05008KT 10SM CLR 22/03 A3006
TAFs for nearby airports:
N 0 21' KBFI KBFI 181736Z 1818/1918 36003KT P6SM SKC
  FM182000 07010G17KT P6SM SKC
  FM190300 03005KT P6SM SKC
S 4 432' KSEA KSEA 182105Z 1821/1924 08017G24KT P6SM FEW250
  FM190300 04008KT P6SM SKC
  FM191200 03007KT P6SM SKC
  FM191800 04012KT P6SM SKC
W 18 444' KPWT TAF KPWT 181736Z 1818/1918 04010KT P6SM SKC
  FM182100 05012G20KT P6SM SKC
  FM190300 04007KT P6SM SKC
N 22 607' KPAE KPAE 181736Z 1818/1918 35004KT P6SM SKC
  FM181900 07010KT P6SM SKC
  FM190600 11004KT P6SM SKC
  FM191200 07005KT P6SM SKC
S 24 322' KTCM TAF KTCM 182100Z 1821/2003 06009KT 9999 SKC QNH3009INS
  BECMG 1902/1903 09009KT 9999 FEW250 QNH2998INS
  BECMG 1916/1917 03009KT 9999 FEW250 QNH2993INS TX21/1823Z TN05/1913Z
S 29 300' KGRF TAF KGRF 182100Z 1821/2003 06009KT 9999 SKC QNH3009INS
  BECMG 1902/1903 09009KT 9999 FEW250 QNH2998INS
  BECMG 1916/1917 03009KT 9999 FEW250 QNH2993INS TX21/1823Z TN05/1913Z
SW 41 207' KOLM KOLM 181736Z 1818/1918 02004KT P6SM SKC
  FM182000 04010KT P6SM SKC
  FM190200 05005KT P6SM SKC
  FM191200 00000KT 4SM BR SKC
  FM191600 04005KT P6SM SKC
N 51 47' KNUW TAF KNUW 1815/1915 VRB06KT 9999 FEW250 QNH3015INS
  TEMPO 1819/1900 25007KT T15/1822Z T03/1912Z FS30004
NW 59 291' KCLM KCLM 181736Z 1818/1918 16006KT P6SM SKC
  FM181900 09010KT P6SM SKC
  FM190200 17005KT P6SM SKC
  FM191400 15005KT P6SM SKC
SW 74 17' KHQM KHQM 181736Z 1818/1918 07015KT P6SM SKC
  FM181900 06016G20KT P6SM SKC
  FM190200 06010KT P6SM SKC
N 76 171' KBLI KBLI 181736Z 1818/1918 02004KT P6SM SKC
  FM182100 35006KT P6SM SKC
  FM190500 02004KT P6SM SKC
E 85 1248' KEAT TAF KEAT 181744Z 1818/1918 VRB05KT P6SM SKC
SE 92 1098' KYKM TAF
  AMD KYKM 182151Z 1822/1918 VRB06KT P6SM SKC
  FM190200 28008KT P6SM SKC
Area forecast:
000
FAUS46 KKCI 101945
FA6W  
SFOC FA 101945
SYNOPSIS AND VFR CLDS/WX
SYNOPSIS VALID UNTIL 111400
CLDS/WX VALID UNTIL 110800...OTLK VALID 110800-111400
WA OR CA AND CSTL WTRS
.
SEE AIRMET SIERRA FOR IFR CONDS AND MTN OBSCN.
TS IMPLY SEV OR GTR TURB SEV ICE LLWS AND IFR CONDS.
NON MSL HGTS DENOTED BY AGL OR CIG.
.
SYNOPSIS...UPR LVL TROF WAS LOCATED NR 130W. MOIST SWLY FLOW
EXTDS FROM PAC NW EWD INTO NRN ROCKIES. HIGH PRES RIDGE WAS OVR
MUCH OF THE REST OF THE AREA. BY 14Z...UPR LVL TROF WILL EXTD
FROM WA-OR SWD INTO CA.  ..STREIB..
.
WA CASCDS WWD
CSTL SXNS
CSTLN-INLAND...SCT-BKN025 BKN035-050 TOPS 120-140. ISOL -SHRA.
   OTLK...MVFR CIGS SHRA BR.
PUGET SOUND-INTR VLY...SCT-BKN020 BKN-OVC035-050 TOPS 160 BKN CI.
   WDLY SCT -SHRA. OTLK...MVFR CIGS SHRA.
CASCDS...BKN-OVC050-070 TOPS FL180. BKN CI ABV. WDLY SCT -SHRA.
   OTLK...MVFR CIGS SHRA.
.
WA E OF CASCDS
CNTRL WA...SCT140 OVC CI. BECMG 2302 SCT080 BKN120 LYRD FL240.
   OTLK...VFR.
ERN WA...SCT-BKN140-160 LYRD FL240. BECMG 0508 BKN080 OVC120
   LYRD FL240 ISOL -SHRA DVLPG. OTLK...VFR.
.
OR CASCDS WWD
CSTL SXNS
CSTLN-INLAND...SCT-BKN020 BKN-OVC035-050 TOPS FL180. WDLY SCT
   -SHRA. OTLK...MVFR CIGS SHRA.
WILLAMETTE VLY/SWRN INTR...SCT-BKN020 BKN-OVC035-050 TOPS FL180.
   WDLY SCT -SHRA. OTLK...MVFR CIGS SHRA.
CASCDS...SCT-BKN060 BKN-OVC080-100 TOPS FL180 ISOL -SHRA.
   OTLK...MVFR CIGS SHRA.
.
OR E OF CASCDS
CNTRL...SCT100-120 BKN150 LYRD FL240. OTLK...VFR.
ERN...SCT130-150 BKN CI. BECMG 0205 OVC120-140 LYRD FL240.
   OTLK...VFR.
.
NRN CA...STS-SAC-TVL LN NWD
CSTL SXNS...
   FOT NWD...SCT025 BKN CI ABV. BECMG 0205 SCT020 OVC050 TOPS
      160. ISOL -SHRA. OTLK...IFR CIGS.
   S OF FOT...SCT-BKN010 TOPS 030-040. OTLK...IFR CIGS.
REST OF AREA...SKC OCNL SCT CI. OCNL VYS 3-5SM FU HZ.
   OTLK...VFR.
SAC VLY...
   NRN AND CNTRL SXNS...SKC. OTLK...VFR.
   SRN SXNS...SKC. OCNL VIS 3-5SM FU HZ. OTLK...MVFR FU HZ.
SHASTA-SISKIYOUS-NERN CA...
NRN SIERRAS...SKC OCNL SCT CI. WINDS SLY G25KT. OTLK...VFR WIND.
.
CNTRL CA
CSTL SXNS...
   CSTLN...SKC OCNL SCT010. BECMG 0508 OCNL CIGS BKN-SCT010 TOPS
      020-030. OTLK...IFR CIGS.
   INLAND...SKC. OTLK...VFR BECMG 1114 IFR CIGS BR.
SAN JOAQUIN VLY...SKC. OTLK...VFR.
SRN SIERRAS..SKC. OTLK...VFR.
.
SRN CA..VBG-NID-60NNW BIH LN SWD
CSTL SXNS...
   CSTLN...
      EXTRM SRN SXNS...SKC. BECMG 0205 SCT010. BECMG 0508 CIGS
         BKN-OVC010 TOPS 030. OTLK...IFR CIGS.
      REST OF AREA...SKC. OTLK...VFR BECMG 0811 IFR CIGS BR.
   INLAND...SKC OCNL FEW CI. OTLK...VFR.
INTR MTNS-MOJAVE-SRN DESERTS...SKC OCNL FEW CI. OTLK...VFR.
.
CSTL WTRS
WA...SCT-BKN035-050 TOPS 100-120. ISOL -SHRA. OTLK...VFR.
OR...
NWRN HLF...SCT-BKN035-050 TOPS 100-120. ISOL -SHRA. OTLK...VFR.
SERN HLF...SCT-BKN025 BKN035-050 TOPS FL180 BKN CI ABV. WDLY SCT
   -SHRA. OTLK...MVFR CIGS SHRA.
CA...
NRN CA...
   FOT NWD...SCT025 BKN CI ABV. BECMG 0205 SCT020 OVC050 TOPS
      160. ISOL -SHRA. OTLK...IFR CIGS.
   S OF FOT...SCT-BKN010 TOPS 030-040. OTLK...IFR CIGS.
CNTRL CA...SCT-BKN010 TOPS 030-040. OTLK...IFR CIGS.
SRN CA...
   OUTER CSTL WTRS...CIGS BKN010-020 TOPS 030-050.
      OTLK...IFR CIGS.
   ADJ CSTL WTRS...SKC. OCNL AGL SCT010. OTLK...VFR BECMG 0811
      IFR CIGS BR.
.
THE AREA FORECAST WILL TERMINATE AT 2359Z ON 10 OCTOBER 2017. IN
PLACE OF THE AREA FORECAST...PLEASE SEE THE GRAPHICAL FORECAST AT
WWW.AVIATIONWEATHER.GOV/GFA. GRAPHICAL AND TEXT AIRMETS WILL
CONTINUE AS REGULARLY SCHEDULED.
....

Shortcut to this page: http://wxbay.com.

Data may contain errors.